Time;durP1;ratioP1;P1;durP2;ratioP2;P2;SDS_P1;SDS_P2;PMS_P1;PMS_P2;Temp;Humidity;BMP_temperature;BMP_pressure;BME280_temperature;BME280_humidity;BME280_pressure;Samples;Min_cycle;Max_cycle;Signal;HPM_P1;HPM_P2
2021/07/01 00:01:35;;;;;;;15.90;3.30;;;14.20;99.90;;;;;;5037334;28;20075;-76
2021/07/01 00:04:01;;;;;;;11.00;2.17;;;14.20;99.90;;;;;;5049846;28;20029;-76
2021/07/01 00:06:27;;;;;;;13.10;2.33;;;14.20;99.90;;;;;;5035822;28;20437;-76
2021/07/01 00:08:52;;;;;;;6.68;2.10;;;14.20;99.90;;;;;;5035326;28;20091;-76
2021/07/01 00:11:18;;;;;;;7.50;2.33;;;14.20;99.90;;;;;;5017324;28;20421;-76
2021/07/01 00:13:43;;;;;;;13.50;2.25;;;14.10;99.90;;;;;;5037522;28;20017;-76
2021/07/01 00:16:09;;;;;;;7.63;2.22;;;14.10;99.90;;;;;;5054566;28;20362;-76
2021/07/01 00:18:34;;;;;;;7.43;2.15;;;14.10;99.90;;;;;;5043676;28;20079;-76
2021/07/01 00:21:00;;;;;;;9.18;2.22;;;14.10;99.90;;;;;;5017051;28;20023;-76
2021/07/01 00:23:25;;;;;;;9.85;3.03;;;14.10;99.90;;;;;;5035384;28;20060;-76
2021/07/01 00:25:51;;;;;;;9.73;2.17;;;14.10;99.90;;;;;;5054283;28;20067;-76
2021/07/01 00:28:16;;;;;;;9.05;1.40;;;14.10;99.90;;;;;;5053087;28;20549;-76
2021/07/01 00:30:42;;;;;;;7.72;2.55;;;14.10;99.90;;;;;;5034908;28;20497;-76
2021/07/01 00:33:08;;;;;;;11.90;1.95;;;14.10;99.90;;;;;;5034659;28;20025;-76
2021/07/01 00:35:33;;;;;;;8.60;2.58;;;14.00;99.90;;;;;;5033507;28;20485;-76
2021/07/01 00:37:59;;;;;;;13.30;3.45;;;14.00;99.90;;;;;;5054770;28;20025;-76
2021/07/01 00:40:25;;;;;;;5.43;1.80;;;14.00;99.90;;;;;;5053957;28;20398;-76
2021/07/01 00:42:50;;;;;;;11.52;1.70;;;13.90;99.90;;;;;;5054377;28;20036;-76
2021/07/01 00:45:16;;;;;;;6.07;1.20;;;13.90;99.90;;;;;;5021907;28;20446;-76
2021/07/01 00:47:42;;;;;;;13.10;2.05;;;13.90;99.90;;;;;;5034950;28;20022;-76
2021/07/01 00:50:10;;;;;;;8.27;1.63;;;13.80;99.90;;;;;;5037394;28;20101;-78
2021/07/01 00:52:36;;;;;;;9.57;1.92;;;13.80;99.90;;;;;;5037328;28;20549;-78
2021/07/01 00:55:03;;;;;;;5.78;2.05;;;13.80;99.90;;;;;;5018973;28;20128;-78
2021/07/01 00:57:29;;;;;;;8.95;2.10;;;13.80;99.90;;;;;;5018988;28;20057;-79
2021/07/01 00:59:54;;;;;;;7.90;2.00;;;13.80;99.90;;;;;;5018935;28;20049;-78
2021/07/01 01:02:20;;;;;;;8.43;2.17;;;13.80;99.90;;;;;;5018637;28;20488;-78
2021/07/01 01:04:46;;;;;;;8.38;2.35;;;13.80;99.90;;;;;;5045834;28;20501;-78
2021/07/01 01:07:11;;;;;;;13.27;2.78;;;13.80;99.90;;;;;;5038125;28;20024;-77
2021/07/01 01:09:37;;;;;;;10.25;1.92;;;13.80;99.90;;;;;;5037821;28;20439;-77
2021/07/01 01:12:02;;;;;;;8.98;2.40;;;13.80;99.90;;;;;;5055656;28;20477;-77
2021/07/01 01:14:28;;;;;;;6.47;2.47;;;13.80;99.90;;;;;;5047516;28;20036;-77
2021/07/01 01:16:53;;;;;;;13.35;3.38;;;13.80;99.90;;;;;;5018455;28;20025;-77
2021/07/01 01:19:19;;;;;;;8.68;2.85;;;13.80;99.90;;;;;;5036686;28;20028;-76
2021/07/01 01:21:49;;;;;;;8.57;3.22;;;13.80;99.90;;;;;;5036274;28;20013;-77
2021/07/01 01:24:16;;;;;;;12.57;2.63;;;13.80;99.90;;;;;;5036733;28;20023;-77
2021/07/01 01:26:41;;;;;;;8.98;2.47;;;13.80;99.90;;;;;;5054672;28;20025;-77
2021/07/01 01:29:07;;;;;;;13.57;2.53;;;13.80;99.90;;;;;;5017513;28;20079;-76
2021/07/01 01:31:36;;;;;;;11.25;3.50;;;13.80;99.90;;;;;;5033893;28;20060;-77
2021/07/01 01:34:02;;;;;;;7.68;2.53;;;13.80;99.90;;;;;;5033854;28;20017;-77
2021/07/01 01:36:28;;;;;;;11.68;3.55;;;13.80;99.90;;;;;;5033720;28;20025;-76
2021/07/01 01:38:53;;;;;;;7.68;3.08;;;13.80;99.90;;;;;;5017180;28;20079;-76
2021/07/01 01:41:23;;;;;;;16.73;2.60;;;13.80;99.90;;;;;;5034598;28;20017;-78
2021/07/01 01:43:49;;;;;;;14.45;2.67;;;13.80;99.90;;;;;;5019726;28;20047;-78
2021/07/01 01:46:15;;;;;;;16.95;3.70;;;13.80;99.90;;;;;;5036429;28;20024;-78
2021/07/01 01:48:40;;;;;;;8.68;2.45;;;13.80;99.90;;;;;;5048583;28;20390;-77
2021/07/01 01:51:06;;;;;;;8.50;1.90;;;13.80;99.90;;;;;;5054407;28;20079;-77
2021/07/01 01:53:31;;;;;;;11.65;2.17;;;13.80;99.90;;;;;;5054571;28;20025;-77
2021/07/01 01:55:57;;;;;;;13.75;3.83;;;13.80;99.90;;;;;;5022869;28;20017;-77
2021/07/01 01:58:22;;;;;;;10.20;2.42;;;13.80;99.90;;;;;;5046564;28;20478;-79
2021/07/01 02:00:48;;;;;;;7.55;2.08;;;14.10;99.90;;;;;;5055218;28;20103;-79
2021/07/01 02:03:13;;;;;;;9.15;2.17;;;14.20;99.90;;;;;;5043984;28;20021;-79
2021/07/01 02:05:39;;;;;;;9.25;1.63;;;13.80;99.90;;;;;;5017000;28;20386;-79
2021/07/01 02:08:09;;;;;;;11.02;3.05;;;13.70;99.90;;;;;;5026158;28;20018;-79
2021/07/01 02:10:35;;;;;;;11.90;2.30;;;13.70;99.90;;;;;;5036728;28;20056;-79
2021/07/01 02:13:02;;;;;;;12.73;2.83;;;13.70;99.90;;;;;;5037675;28;20033;-79
2021/07/01 02:15:28;;;;;;;10.82;1.90;;;13.70;99.90;;;;;;5057273;28;20021;-78
2021/07/01 02:17:55;;;;;;;7.43;2.47;;;13.80;99.90;;;;;;5028503;28;20033;-79
2021/07/01 02:20:23;;;;;;;14.25;1.83;;;13.70;99.90;;;;;;5058618;28;20516;-78
2021/07/01 02:22:50;;;;;;;10.17;1.60;;;13.70;99.90;;;;;;5040372;28;20018;-79
2021/07/01 02:25:16;;;;;;;12.07;2.63;;;13.70;99.90;;;;;;5040593;28;20302;-79
2021/07/01 02:27:43;;;;;;;9.85;2.08;;;13.70;99.90;;;;;;5039691;28;20021;-79
2021/07/01 02:30:11;;;;;;;8.88;1.73;;;13.70;99.90;;;;;;5058229;28;20028;-79
2021/07/01 02:32:37;;;;;;;8.63;1.73;;;13.70;99.90;;;;;;5040166;28;20079;-79
2021/07/01 02:35:05;;;;;;;7.25;1.42;;;13.70;99.90;;;;;;5058820;28;20021;-79
2021/07/01 02:37:30;;;;;;;12.85;1.48;;;13.70;99.90;;;;;;5054119;28;20486;-79
2021/07/01 02:39:56;;;;;;;8.70;1.55;;;13.80;99.90;;;;;;5020498;28;20085;-79
2021/07/01 02:42:21;;;;;;;10.88;1.90;;;13.70;99.90;;;;;;5038388;28;20112;-79
2021/07/01 02:44:47;;;;;;;7.60;1.63;;;13.70;99.90;;;;;;5020613;28;20105;-78
2021/07/01 02:47:12;;;;;;;9.93;2.08;;;13.70;99.90;;;;;;5021866;28;20079;-78
2021/07/01 02:49:38;;;;;;;11.38;1.98;;;13.70;99.90;;;;;;5059891;28;20166;-78
2021/07/01 02:52:04;;;;;;;8.13;1.75;;;13.70;99.90;;;;;;5042231;28;20044;-79
2021/07/01 02:54:29;;;;;;;7.70;1.63;;;13.70;99.90;;;;;;5057793;28;20068;-78
2021/07/01 02:56:55;;;;;;;9.05;1.35;;;13.70;99.90;;;;;;5059248;28;20056;-79
2021/07/01 02:59:21;;;;;;;11.18;1.98;;;13.70;99.90;;;;;;5040432;28;20029;-79
2021/07/01 03:01:50;;;;;;;8.30;2.03;;;13.70;99.90;;;;;;5021121;28;20041;-79
2021/07/01 03:04:16;;;;;;;7.80;2.33;;;13.70;99.90;;;;;;5038835;28;20033;-79
2021/07/01 03:06:43;;;;;;;9.75;1.75;;;13.70;99.90;;;;;;5040933;28;20070;-79
2021/07/01 03:09:09;;;;;;;7.45;2.03;;;13.70;99.90;;;;;;5040255;28;20486;-77
2021/07/01 03:11:35;;;;;;;8.18;2.10;;;13.80;99.90;;;;;;5039208;28;20034;-78
2021/07/01 03:14:01;;;;;;;9.02;2.10;;;13.80;99.90;;;;;;5032052;28;20056;-78
2021/07/01 03:16:26;;;;;;;9.85;2.05;;;13.70;99.90;;;;;;5058269;28;20029;-78
2021/07/01 03:18:54;;;;;;;14.57;1.75;;;13.70;99.90;;;;;;5058362;28;20029;-78
2021/07/01 03:21:20;;;;;;;11.98;2.15;;;13.70;99.90;;;;;;5041106;28;20111;-79
2021/07/01 03:23:47;;;;;;;9.00;1.98;;;13.70;99.90;;;;;;5038972;28;20021;-79
2021/07/01 03:26:15;;;;;;;13.07;2.55;;;13.70;99.90;;;;;;5039406;28;20485;-78
2021/07/01 03:28:41;;;;;;;15.57;2.25;;;13.70;99.90;;;;;;5044333;28;20490;-78
2021/07/01 03:31:07;;;;;;;11.65;2.33;;;13.70;99.90;;;;;;5037894;28;20056;-78
2021/07/01 03:33:34;;;;;;;9.63;2.28;;;13.70;99.90;;;;;;5037596;28;20418;-78
2021/07/01 03:36:00;;;;;;;13.15;2.28;;;13.70;99.90;;;;;;5037446;28;20026;-78
2021/07/01 03:38:26;;;;;;;11.80;1.65;;;13.70;99.90;;;;;;5047929;28;20112;-78
2021/07/01 03:40:52;;;;;;;15.68;1.83;;;13.70;99.90;;;;;;5039189;28;20083;-78
2021/07/01 03:43:18;;;;;;;11.32;2.67;;;13.70;99.90;;;;;;5056988;28;20147;-78
2021/07/01 03:45:44;;;;;;;9.57;2.85;;;13.70;99.90;;;;;;5057061;28;20049;-79
2021/07/01 03:48:10;;;;;;;7.35;1.95;;;15.90;99.90;;;;;;5056967;28;20017;-78
2021/07/01 03:50:36;;;;;;;14.68;2.92;;;16.50;99.90;;;;;;5056545;28;20490;-79
2021/07/01 03:53:02;;;;;;;9.07;2.15;;;13.80;99.90;;;;;;5039169;28;20032;-78
2021/07/01 03:55:27;;;;;;;8.52;1.83;;;13.80;99.90;;;;;;5039843;28;20025;-78
2021/07/01 03:57:53;;;;;;;6.78;2.03;;;13.70;99.90;;;;;;5036755;28;20068;-78
2021/07/01 04:00:18;;;;;;;12.65;2.92;;;13.80;99.90;;;;;;5039459;28;20104;-78
2021/07/01 04:02:45;;;;;;;9.55;2.28;;;13.80;99.90;;;;;;5021661;28;20386;-78
2021/07/01 04:05:11;;;;;;;12.50;2.85;;;13.80;99.90;;;;;;5039807;28;20353;-78
2021/07/01 04:07:37;;;;;;;10.23;2.58;;;13.80;99.90;;;;;;5039222;28;20018;-78
2021/07/01 04:10:08;;;;;;;8.32;2.67;;;13.80;99.90;;;;;;5039886;28;20025;-78
2021/07/01 04:12:35;;;;;;;11.45;2.42;;;13.80;99.90;;;;;;5022459;28;20025;-78
2021/07/01 04:15:01;;;;;;;12.02;3.03;;;13.80;99.90;;;;;;5038739;28;20037;-77
2021/07/01 04:17:26;;;;;;;5.85;1.92;;;13.80;99.90;;;;;;5022034;28;20033;-77
2021/07/01 04:19:52;;;;;;;12.00;2.78;;;13.80;99.90;;;;;;5040556;28;20033;-78
2021/07/01 04:22:18;;;;;;;5.00;1.70;;;13.80;99.90;;;;;;5058256;28;20020;-78
2021/07/01 04:24:43;;;;;;;10.73;2.40;;;13.80;99.90;;;;;;5058035;28;20017;-77
2021/07/01 04:27:09;;;;;;;5.85;2.03;;;13.80;99.90;;;;;;5040042;28;20021;-77
2021/07/01 04:29:35;;;;;;;7.03;1.83;;;13.90;99.90;;;;;;5037674;28;20025;-77
2021/07/01 04:32:00;;;;;;;6.80;1.63;;;13.80;99.90;;;;;;5037017;28;20043;-77
2021/07/01 04:34:26;;;;;;;7.57;1.50;;;13.90;99.90;;;;;;5037092;28;20034;-77
2021/07/01 04:36:51;;;;;;;8.90;1.88;;;13.80;99.90;;;;;;5040456;28;20053;-79
2021/07/01 04:39:17;;;;;;;7.05;1.33;;;13.80;99.90;;;;;;5038438;28;20063;-78
2021/07/01 04:41:43;;;;;;;7.28;1.70;;;13.80;99.90;;;;;;5059710;28;20492;-78
2021/07/01 04:44:08;;;;;;;6.25;0.93;;;13.90;99.90;;;;;;5040770;28;20028;-78
2021/07/01 04:46:34;;;;;;;11.98;2.17;;;13.90;99.90;;;;;;5041306;28;20048;-78
2021/07/01 04:49:00;;;;;;;10.15;1.48;;;13.90;99.90;;;;;;5027365;28;20494;-79
2021/07/01 04:51:26;;;;;;;6.95;2.08;;;13.90;99.90;;;;;;5040160;28;20061;-78
2021/07/01 04:53:52;;;;;;;9.85;1.60;;;13.90;99.90;;;;;;5032910;28;20017;-78
2021/07/01 04:56:18;;;;;;;9.60;1.50;;;13.90;99.90;;;;;;5040360;28;20032;-78
2021/07/01 04:58:43;;;;;;;5.25;1.73;;;13.90;99.90;;;;;;5048017;28;20021;-78
2021/07/01 05:01:09;;;;;;;5.47;2.10;;;13.90;99.90;;;;;;5038435;28;20029;-78
2021/07/01 05:03:35;;;;;;;3.85;1.48;;;13.90;99.90;;;;;;5020649;28;20022;-78
2021/07/01 05:06:01;;;;;;;7.13;1.77;;;14.00;99.90;;;;;;5020212;28;20026;-78
2021/07/01 05:08:26;;;;;;;4.32;1.70;;;14.00;99.90;;;;;;5029892;28;20033;-78
2021/07/01 05:10:52;;;;;;;6.75;1.40;;;14.00;99.90;;;;;;5057377;28;20474;-78
2021/07/01 05:13:17;;;;;;;7.90;1.40;;;14.00;99.90;;;;;;5057590;28;20025;-78
2021/07/01 05:15:43;;;;;;;7.90;2.35;;;14.00;99.90;;;;;;5040299;28;20481;-78
2021/07/01 05:18:08;;;;;;;9.52;1.70;;;14.00;99.90;;;;;;5038642;28;20021;-78
2021/07/01 05:20:34;;;;;;;5.53;1.67;;;14.00;99.90;;;;;;5058050;28;20135;-78
2021/07/01 05:23:00;;;;;;;8.95;2.72;;;14.10;99.90;;;;;;5041310;28;20048;-78
2021/07/01 05:25:25;;;;;;;6.03;2.15;;;14.10;99.90;;;;;;5040569;28;20032;-78
2021/07/01 05:27:51;;;;;;;10.15;2.20;;;14.30;99.90;;;;;;5053555;28;20022;-78
2021/07/01 05:30:17;;;;;;;8.23;2.60;;;14.10;99.90;;;;;;5018480;28;20034;-82
2021/07/01 05:32:42;;;;;;;5.15;1.73;;;14.10;99.90;;;;;;5036546;28;20441;-82
2021/07/01 05:35:08;;;;;;;13.60;2.85;;;14.00;99.90;;;;;;5018276;28;20040;-83
2021/07/01 05:37:34;;;;;;;13.15;3.15;;;14.10;99.90;;;;;;5020164;28;20029;-83
2021/07/01 05:39:59;;;;;;;15.30;3.00;;;14.10;99.90;;;;;;5037554;28;20024;-82
2021/07/01 05:42:25;;;;;;;11.02;2.85;;;14.10;99.90;;;;;;5038006;28;20017;-81
2021/07/01 05:44:50;;;;;;;8.93;2.72;;;14.20;99.90;;;;;;5037815;28;20021;-81
2021/07/01 05:47:16;;;;;;;11.02;2.80;;;15.60;99.90;;;;;;5037606;28;20044;-81
2021/07/01 05:49:41;;;;;;;8.40;2.80;;;14.40;99.90;;;;;;5054459;28;20390;-81
2021/07/01 05:52:08;;;;;;;7.45;2.47;;;14.40;99.90;;;;;;5038058;28;20112;-81
2021/07/01 05:54:53;;;;;;;11.85;2.70;;;14.50;99.90;;;;;;5055377;28;20033;-81
2021/07/01 05:57:19;;;;;;;8.05;2.38;;;15.70;99.90;;;;;;5038131;28;20021;-81
2021/07/01 05:59:44;;;;;;;9.68;2.42;;;14.70;99.90;;;;;;5035194;28;20051;-81
2021/07/01 06:02:10;;;;;;;11.30;2.97;;;14.70;99.90;;;;;;5025790;28;20038;-81
2021/07/01 06:04:35;;;;;;;11.07;2.78;;;14.70;99.90;;;;;;5018187;28;20076;-81
2021/07/01 06:07:01;;;;;;;7.32;2.38;;;14.60;99.90;;;;;;5036299;28;20383;-81
2021/07/01 06:09:27;;;;;;;6.97;2.00;;;14.60;99.90;;;;;;5036630;28;20376;-81
2021/07/01 06:11:56;;;;;;;18.63;4.07;;;14.60;99.90;;;;;;5017454;28;20049;-78
2021/07/01 06:14:23;;;;;;;13.30;2.90;;;14.60;99.90;;;;;;5035583;28;20025;-79
2021/07/01 06:16:51;;;;;;;7.75;2.22;;;14.70;99.90;;;;;;5017449;28;20029;-79
2021/07/01 06:19:18;;;;;;;13.85;3.05;;;14.70;99.90;;;;;;5035667;28;20037;-78
2021/07/01 06:21:43;;;;;;;12.18;3.08;;;14.80;99.90;;;;;;5042345;28;20411;-78
2021/07/01 06:24:09;;;;;;;11.90;3.85;;;14.80;99.90;;;;;;5036226;28;20024;-78
2021/07/01 06:26:36;;;;;;;7.20;2.25;;;14.80;99.90;;;;;;5036136;28;20390;-78
2021/07/01 06:29:03;;;;;;;9.00;2.90;;;14.90;99.90;;;;;;5055193;28;20461;-78
2021/07/01 06:31:29;;;;;;;10.02;2.58;;;14.90;99.90;;;;;;5054867;28;20031;-78
2021/07/01 06:33:54;;;;;;;12.80;3.25;;;14.90;99.90;;;;;;5036913;28;20025;-78
2021/07/01 06:36:24;;;;;;;10.18;3.58;;;15.00;99.90;;;;;;5054814;28;20025;-78
2021/07/01 06:38:52;;;;;;;7.05;2.88;;;15.10;99.90;;;;;;5036910;28;20100;-78
2021/07/01 06:41:20;;;;;;;8.93;2.53;;;15.20;99.90;;;;;;5038430;28;20037;-78
2021/07/01 06:43:48;;;;;;;12.60;3.00;;;15.20;99.90;;;;;;5035209;28;20022;-79
2021/07/01 06:46:19;;;;;;;9.10;2.65;;;15.40;99.90;;;;;;5044521;28;20088;-76
2021/07/01 06:48:47;;;;;;;12.43;3.15;;;15.20;99.90;;;;;;5034788;28;20124;-76
2021/07/01 06:51:13;;;;;;;13.67;3.30;;;15.30;99.90;;;;;;5053071;28;20040;-76
2021/07/01 06:53:41;;;;;;;11.13;2.95;;;15.20;99.90;;;;;;5052633;28;20112;-76
2021/07/01 06:56:07;;;;;;;13.77;3.65;;;15.20;99.90;;;;;;5052567;28;20025;-76
2021/07/01 06:58:33;;;;;;;16.92;3.60;;;15.20;99.90;;;;;;5052875;28;20021;-76
2021/07/01 07:00:59;;;;;;;11.52;3.72;;;15.20;99.90;;;;;;5056816;28;20386;-75
2021/07/01 07:03:26;;;;;;;14.65;2.78;;;15.10;99.90;;;;;;5056520;28;20029;-76
2021/07/01 07:05:53;;;;;;;8.10;2.30;;;15.10;99.90;;;;;;5038341;28;20021;-76
2021/07/01 07:08:20;;;;;;;20.40;4.22;;;15.10;99.90;;;;;;5039092;28;20044;-76
2021/07/01 07:10:47;;;;;;;11.13;3.22;;;15.10;99.90;;;;;;5038302;28;20032;-76
2021/07/01 07:13:13;;;;;;;14.32;3.08;;;15.20;99.90;;;;;;5038535;28;20028;-76
2021/07/01 07:15:40;;;;;;;12.27;3.22;;;15.20;99.90;;;;;;5038129;28;20025;-76
2021/07/01 07:18:19;;;;;;;16.65;4.95;;;15.20;99.90;;;;;;5056335;28;20036;-76
2021/07/01 07:20:46;;;;;;;19.45;3.40;;;15.30;99.90;;;;;;5055817;28;20032;-76
2021/07/01 07:23:19;;;;;;;11.57;2.65;;;15.40;99.90;;;;;;5038003;28;20027;-76
2021/07/01 07:25:46;;;;;;;13.15;3.45;;;15.60;99.90;;;;;;5055973;28;20075;-77
2021/07/01 07:28:17;;;;;;;8.43;3.35;;;15.70;99.90;;;;;;5057004;28;20021;-77
2021/07/01 07:30:43;;;;;;;19.73;3.00;;;16.60;99.90;;;;;;5057148;28;20055;-78
2021/07/01 07:33:10;;;;;;;14.23;3.78;;;15.80;99.90;;;;;;5056871;28;20029;-78
2021/07/01 07:35:36;;;;;;;12.88;3.17;;;16.00;99.90;;;;;;5057097;28;20028;-77
2021/07/01 07:38:07;;;;;;;16.27;4.57;;;15.90;99.90;;;;;;5056986;28;20017;-77
2021/07/01 07:40:37;;;;;;;13.80;3.30;;;16.00;99.90;;;;;;5056499;28;20029;-77
2021/07/01 07:43:04;;;;;;;14.20;3.20;;;16.00;99.90;;;;;;5056333;28;20143;-77
2021/07/01 07:45:31;;;;;;;9.27;2.85;;;16.00;99.90;;;;;;5038329;28;20021;-77
2021/07/01 07:47:56;;;;;;;25.25;4.85;;;16.10;99.90;;;;;;5056015;28;20096;-77
2021/07/01 07:50:22;;;;;;;14.70;3.78;;;16.10;99.90;;;;;;5055921;28;20065;-77
2021/07/01 07:52:50;;;;;;;17.42;4.28;;;16.10;99.90;;;;;;5056091;28;20078;-77
2021/07/01 07:55:19;;;;;;;21.17;3.67;;;16.20;99.90;;;;;;5056615;28;20079;-78
2021/07/01 07:57:48;;;;;;;;;;;16.20;99.90;;;;;;5041240;28;20083;-78
2021/07/01 08:00:14;;;;;;;19.50;3.42;;;16.30;99.90;;;;;;5038721;28;19908;-77
2021/07/01 08:02:52;;;;;;;17.70;3.50;;;16.20;99.90;;;;;;5055605;28;20154;-77
2021/07/01 08:05:22;;;;;;;17.23;4.13;;;16.20;99.90;;;;;;5055947;28;20031;-77
2021/07/01 08:07:50;;;;;;;19.55;4.35;;;16.30;99.90;;;;;;5037773;28;20021;-77
2021/07/01 08:10:19;;;;;;;18.30;3.40;;;16.30;99.90;;;;;;5036259;28;20124;-77
2021/07/01 08:12:49;;;;;;;10.70;3.00;;;16.20;99.90;;;;;;5037011;28;20047;-77
2021/07/01 08:15:20;;;;;;;10.25;3.08;;;16.40;99.90;;;;;;5055862;28;20021;-77
2021/07/01 08:17:48;;;;;;;14.93;4.35;;;16.30;99.90;;;;;;5055510;28;20409;-77
2021/07/01 08:20:16;;;;;;;13.77;2.85;;;16.20;99.90;;;;;;5055008;28;20477;-77
2021/07/01 08:22:47;;;;;;;18.30;4.13;;;16.20;99.90;;;;;;5055352;28;20427;-77
2021/07/01 08:25:14;;;;;;;16.05;3.75;;;16.20;99.90;;;;;;5072498;22;20079;-76
2021/07/01 08:27:44;;;;;;;14.35;3.78;;;16.20;99.90;;;;;;5044587;28;20051;-75
2021/07/01 08:30:12;;;;;;;14.05;3.10;;;16.30;99.90;;;;;;5055169;28;20061;-76
2021/07/01 08:32:39;;;;;;;11.90;2.80;;;16.30;99.90;;;;;;5054456;28;20025;-75
2021/07/01 08:35:07;;;;;;;14.05;3.17;;;16.30;99.90;;;;;;5037270;28;20104;-76
2021/07/01 08:37:33;;;;;;;12.15;3.00;;;16.40;99.90;;;;;;5054483;28;20111;-75
2021/07/01 08:40:01;;;;;;;11.77;3.53;;;16.40;99.90;;;;;;5036400;28;20037;-75
2021/07/01 08:42:33;;;;;;;12.32;3.15;;;16.40;99.90;;;;;;5054342;28;20067;-76
2021/07/01 08:45:10;;;;;;;11.45;2.72;;;16.40;99.90;;;;;;5036579;28;20029;-76
2021/07/01 08:47:43;;;;;;;12.43;2.92;;;16.50;99.90;;;;;;5054493;28;20129;-75
2021/07/01 08:50:15;;;;;;;13.82;2.33;;;16.50;99.90;;;;;;5054534;28;20078;-75
2021/07/01 08:52:46;;;;;;;11.73;3.20;;;16.50;99.90;;;;;;5054479;28;20504;-75
2021/07/01 08:55:17;;;;;;;8.70;2.50;;;16.60;99.90;;;;;;5036296;28;20481;-75
2021/07/01 08:57:47;;;;;;;11.13;2.55;;;16.70;99.90;;;;;;5054390;28;20037;-75
2021/07/01 09:00:15;;;;;;;12.15;2.53;;;16.70;99.90;;;;;;5054146;28;20025;-75
2021/07/01 09:02:43;;;;;;;16.67;3.00;;;16.90;99.90;;;;;;5054063;28;20551;-75
2021/07/01 09:05:28;;;;;;;10.30;2.00;;;17.20;99.90;;;;;;5036102;28;20033;-75
2021/07/01 09:07:54;;;;;;;10.52;2.42;;;17.40;99.90;;;;;;5053958;28;20442;-75
2021/07/01 09:10:21;;;;;;;8.88;1.83;;;17.50;99.90;;;;;;5035930;28;20024;-75
2021/07/01 09:12:56;;;;;;;8.88;2.50;;;17.60;99.90;;;;;;5053882;28;20036;-75
2021/07/01 09:15:22;;;;;;;11.93;1.98;;;17.60;99.90;;;;;;5035967;28;20047;-75
2021/07/01 09:17:48;;;;;;;7.93;2.00;;;17.60;99.90;;;;;;5035778;28;20047;-75
2021/07/01 09:20:20;;;;;;;11.80;2.38;;;17.50;99.90;;;;;;5053940;28;20029;-75
2021/07/01 09:22:47;;;;;;;10.00;2.28;;;17.40;99.90;;;;;;5053690;28;20029;-75
2021/07/01 09:25:15;;;;;;;8.10;2.35;;;17.30;99.90;;;;;;5053687;28;20079;-75
2021/07/01 09:27:44;;;;;;;9.25;2.28;;;17.30;99.90;;;;;;5035715;28;20052;-75
2021/07/01 09:30:11;;;;;;;10.02;2.20;;;17.20;99.90;;;;;;5053733;28;20480;-75
2021/07/01 09:32:37;;;;;;;12.43;2.97;;;17.10;99.90;;;;;;5035691;28;20371;-76
2021/07/01 09:35:04;;;;;;;10.55;2.08;;;17.00;99.90;;;;;;5053779;28;20027;-76
2021/07/01 09:37:44;;;;;;;9.80;2.22;;;17.00;99.90;;;;;;5035557;28;20032;-75
2021/07/01 09:40:13;;;;;;;11.88;2.10;;;17.00;99.90;;;;;;5053316;28;20021;-75
2021/07/01 09:42:39;;;;;;;8.70;2.00;;;17.00;99.90;;;;;;5053650;28;20156;-75
2021/07/01 09:45:10;;;;;;;7.60;2.20;;;17.00;99.90;;;;;;5035385;28;20508;-75
2021/07/01 09:47:44;;;;;;;9.80;2.17;;;17.00;99.90;;;;;;5035300;28;20045;-75
2021/07/01 09:50:11;;;;;;;7.20;2.03;;;17.00;99.90;;;;;;5035307;28;20505;-75
2021/07/01 09:52:44;;;;;;;10.07;1.55;;;17.00;99.90;;;;;;5053568;28;20363;-76
2021/07/01 09:55:11;;;;;;;15.45;2.65;;;17.10;99.90;;;;;;5053269;28;20207;-75
2021/07/01 09:57:45;;;;;;;4.47;1.42;;;17.10;99.90;;;;;;5053425;28;20092;-75
2021/07/01 10:00:12;;;;;;;5.60;1.65;;;17.10;99.90;;;;;;5053075;28;20021;-75
2021/07/01 10:02:38;;;;;;;8.10;1.42;;;17.10;99.90;;;;;;5053422;28;20051;-75
2021/07/01 10:05:07;;;;;;;10.80;1.40;;;17.10;99.90;;;;;;5053042;28;20533;-75
2021/07/01 10:07:33;;;;;;;7.00;1.25;;;17.00;99.90;;;;;;5052979;28;20027;-75
2021/07/01 10:10:10;;;;;;;5.47;1.90;;;17.00;99.90;;;;;;5052991;28;20087;-75
2021/07/01 10:12:51;;;;;;;7.03;1.50;;;17.00;99.90;;;;;;5053129;28;20025;-75
2021/07/01 10:15:31;;;;;;;5.85;1.58;;;17.10;99.90;;;;;;5053097;28;20394;-75
2021/07/01 10:18:10;;;;;;;7.18;2.60;;;17.10;99.90;;;;;;5035205;28;20032;-75
2021/07/01 10:20:41;;;;;;;11.13;1.67;;;17.20;99.90;;;;;;5052922;28;20021;-75
2021/07/01 10:23:27;;;;;;;8.98;2.38;;;17.20;99.90;;;;;;5035125;28;20021;-75
2021/07/01 10:26:09;;;;;;;8.65;2.10;;;17.30;99.90;;;;;;5053040;28;20090;-75
2021/07/01 10:28:35;;;;;;;11.20;2.33;;;17.40;99.90;;;;;;5052889;28;20494;-75
2021/07/01 10:31:04;;;;;;;8.77;1.90;;;17.50;99.90;;;;;;5052851;28;20021;-75
2021/07/01 10:33:32;;;;;;;8.95;1.85;;;17.40;99.90;;;;;;5053175;28;20021;-75
2021/07/01 10:36:01;;;;;;;14.45;1.88;;;17.50;99.90;;;;;;5038971;28;20021;-75
2021/07/01 10:38:27;;;;;;;12.00;2.63;;;17.60;99.90;;;;;;5038893;28;20021;-75
2021/07/01 10:40:58;;;;;;;9.23;2.35;;;17.70;99.90;;;;;;5056598;28;20052;-75
2021/07/01 10:43:47;;;;;;;16.45;2.35;;;17.90;99.90;;;;;;5038806;28;20088;-75
2021/07/01 10:46:13;;;;;;;11.02;1.90;;;18.10;99.90;;;;;;5038799;28;20032;-75
2021/07/01 10:48:39;;;;;;;11.13;2.28;;;18.20;99.90;;;;;;5056562;28;20126;-75
2021/07/01 10:51:16;;;;;;;11.27;2.58;;;18.20;99.90;;;;;;5056458;28;20037;-75
2021/07/01 10:53:45;;;;;;;7.72;1.80;;;18.30;99.90;;;;;;5038600;28;20548;-75
2021/07/01 10:56:17;;;;;;;15.90;2.35;;;18.40;99.90;;;;;;5056447;28;20481;-75
2021/07/01 10:58:44;;;;;;;15.43;1.85;;;18.40;99.90;;;;;;5056306;28;20389;-75
2021/07/01 11:01:21;;;;;;;11.13;1.63;;;18.30;99.90;;;;;;5038404;28;20090;-75
2021/07/01 11:03:48;;;;;;;10.45;2.78;;;18.40;99.90;;;;;;5056355;28;20024;-75
2021/07/01 11:06:15;;;;;;;10.93;2.50;;;18.40;99.90;;;;;;5056730;28;20104;-76
2021/07/01 11:08:42;;;;;;;8.07;2.13;;;18.50;99.90;;;;;;5056368;28;20029;-75
2021/07/01 11:11:22;;;;;;;15.75;2.75;;;18.50;99.90;;;;;;5038239;28;20031;-76
2021/07/01 11:13:55;;;;;;;9.93;2.22;;;18.60;99.90;;;;;;5038424;28;20032;-76
2021/07/01 11:16:30;;;;;;;16.35;2.08;;;18.70;99.90;;;;;;5056714;28;20025;-75
2021/07/01 11:18:56;;;;;;;7.85;2.25;;;18.60;99.90;;;;;;5055958;28;20393;-76
2021/07/01 11:21:21;;;;;;;10.85;1.50;;;18.70;99.90;;;;;;5056638;28;20025;-75
2021/07/01 11:24:07;;;;;;;10.00;2.80;;;18.70;99.90;;;;;;5038289;28;20025;-76
2021/07/01 11:26:33;;;;;;;13.07;1.55;;;18.70;99.90;;;;;;5055973;28;20029;-76
2021/07/01 11:29:03;;;;;;;12.35;2.70;;;18.50;99.90;;;;;;5055848;28;20508;-76
2021/07/01 11:31:48;;;;;;;11.18;1.80;;;18.50;99.90;;;;;;5055798;28;20021;-75
2021/07/01 11:34:19;;;;;;;13.80;2.53;;;18.50;99.90;;;;;;5037922;28;20029;-75
2021/07/01 11:36:54;;;;;;;15.02;1.83;;;18.40;99.90;;;;;;5055645;28;20049;-75
2021/07/01 11:39:28;;;;;;;12.13;1.85;;;18.50;99.90;;;;;;5055435;28;20044;-75
2021/07/01 11:41:56;;;;;;;10.60;2.10;;;18.40;99.90;;;;;;5056039;28;20014;-75
2021/07/01 11:44:23;;;;;;;14.65;2.92;;;18.40;99.90;;;;;;5055608;28;20025;-75
2021/07/01 11:46:50;;;;;;;13.48;3.22;;;18.50;99.90;;;;;;5054561;28;20486;-76
2021/07/01 11:49:18;;;;;;;12.65;2.75;;;18.60;99.90;;;;;;5055472;28;20386;-75
2021/07/01 11:51:43;;;;;;;13.85;1.85;;;18.60;99.90;;;;;;5055518;28;20016;-75
2021/07/01 11:54:09;;;;;;;9.95;2.28;;;18.70;99.90;;;;;;5055582;28;20033;-76
2021/07/01 11:56:58;;;;;;;13.35;2.60;;;18.70;99.90;;;;;;5037551;28;20021;-76
2021/07/01 11:59:27;;;;;;;8.98;2.03;;;18.70;99.90;;;;;;5037449;28;20116;-76
2021/07/01 12:01:53;;;;;;;9.60;2.47;;;18.80;99.90;;;;;;5037629;28;20390;-76
2021/07/01 12:04:25;;;;;;;18.52;3.50;;;18.70;99.90;;;;;;5055373;28;20048;-76
2021/07/01 12:07:11;;;;;;;10.68;2.22;;;18.80;99.90;;;;;;5055903;28;20067;-76
2021/07/01 12:09:39;;;;;;;10.30;2.20;;;18.80;99.90;;;;;;5055566;28;20028;-76
2021/07/01 12:12:05;;;;;;;14.80;3.85;;;18.90;99.90;;;;;;5054893;28;20070;-75
2021/07/01 12:14:40;;;;;;;15.10;3.15;;;18.70;99.90;;;;;;5037107;28;20029;-74
2021/07/01 12:17:09;;;;;;;13.55;2.65;;;18.60;99.90;;;;;;5037096;28;20029;-75
2021/07/01 12:19:46;;;;;;;9.80;2.08;;;18.50;99.90;;;;;;5054595;28;20021;-75
2021/07/01 12:22:47;;;;;;;14.43;3.95;;;18.40;99.90;;;;;;5037059;28;20123;-76
2021/07/01 12:25:33;;;;;;;11.18;1.88;;;18.30;99.90;;;;;;5055037;28;20452;-75
2021/07/01 12:28:04;;;;;;;13.70;3.03;;;18.20;99.90;;;;;;5054724;28;20028;-75
2021/07/01 12:30:56;;;;;;;17.00;2.92;;;18.20;99.90;;;;;;5054647;28;20025;-75
2021/07/01 12:33:39;;;;;;;6.80;1.88;;;18.10;99.90;;;;;;5054838;28;20090;-75
2021/07/01 12:36:19;;;;;;;16.08;3.60;;;18.10;99.90;;;;;;5055121;28;20396;-75
2021/07/01 12:39:07;;;;;;;7.50;1.90;;;18.10;99.90;;;;;;5054986;28;20036;-75
2021/07/01 12:41:38;;;;;;;11.75;2.95;;;18.20;99.90;;;;;;5054412;28;20397;-76
2021/07/01 12:44:19;;;;;;;13.88;3.00;;;18.40;99.90;;;;;;5036435;28;20021;-75
2021/07/01 12:46:47;;;;;;;9.70;2.35;;;18.50;99.90;;;;;;5037055;28;20500;-75